Time;durP1;ratioP1;P1;durP2;ratioP2;P2;SDS_P1;SDS_P2;PMS_P1;PMS_P2;Temp;Humidity;BMP_temperature;BMP_pressure;BME280_temperature;BME280_humidity;BME280_pressure;Samples;Min_cycle;Max_cycle;Signal;HPM_P1;HPM_P2
2022/10/28 00:00:08;;;;;;;6.03;4.20;;;;;;;15.18;100.00;155260.00;4954189;29;20411;-78
2022/10/28 00:02:54;;;;;;;6.60;4.73;;;;;;;15.16;100.00;155256.13;4960387;28;20593;-77
2022/10/28 00:05:39;;;;;;;6.87;4.30;;;;;;;15.17;100.00;155257.41;4976816;28;20508;-77
2022/10/28 00:08:26;;;;;;;5.90;4.60;;;;;;;15.12;100.00;155244.41;4953823;28;20442;-77
2022/10/28 00:11:13;;;;;;;5.50;4.40;;;;;;;15.11;100.00;155241.84;4938321;29;20447;-77
2022/10/28 00:14:00;;;;;;;6.77;4.20;;;;;;;15.13;100.00;155248.34;4965970;28;20422;-77
2022/10/28 00:16:45;;;;;;;6.30;3.90;;;;;;;15.16;100.00;155254.81;4967121;28;20603;-77
2022/10/28 00:19:31;;;;;;;7.13;4.67;;;;;;;15.15;100.00;155252.22;4955837;28;20454;-77
2022/10/28 00:22:16;;;;;;;6.50;4.80;;;;;;;15.10;100.00;155239.22;4955461;28;20520;-77
2022/10/28 00:25:03;;;;;;;8.40;4.90;;;;;;;15.05;100.00;155226.22;4943100;29;20759;-78
2022/10/28 00:27:48;;;;;;;5.57;3.97;;;;;;;15.01;100.00;155217.13;4951998;28;20450;-77
2022/10/28 00:30:33;;;;;;;6.27;4.53;;;;;;;14.98;100.00;155209.38;4960813;28;20510;-77
2022/10/28 00:33:19;;;;;;;8.17;5.07;;;;;;;14.95;100.00;155201.56;4964149;28;20446;-77
2022/10/28 00:36:09;;;;;;;6.97;4.07;;;;;;;14.95;100.00;155200.25;4956917;29;20446;-77
2022/10/28 00:38:55;;;;;;;9.43;4.47;;;;;;;14.94;100.00;155197.66;4956622;28;20541;-77
2022/10/28 00:41:44;;;;;;;7.77;4.63;;;;;;;14.91;100.00;155189.84;4938303;29;20495;-77
2022/10/28 00:44:54;;;;;;;6.67;4.60;;;;;;;14.85;100.00;155174.28;4956541;29;20431;-77
2022/10/28 00:47:42;;;;;;;10.43;4.90;;;;;;;14.82;100.00;155166.47;4950159;28;21021;-77
2022/10/28 00:50:37;;;;;;;6.80;4.63;;;;;;;14.80;100.00;155162.56;4953705;28;20430;-77
2022/10/28 00:53:26;;;;;;;8.20;7.03;;;;;;;14.82;100.00;155166.47;4957218;29;20407;-77
2022/10/28 00:56:12;;;;;;;6.20;5.00;;;;;;;14.78;100.00;155156.06;4959956;28;20467;-77
2022/10/28 00:59:01;;;;;;;8.80;5.10;;;;;;;14.78;100.00;155156.06;4937874;29;20754;-77
2022/10/28 01:01:46;;;;;;;9.80;4.33;;;;;;;14.76;100.00;155152.19;4952987;28;20453;-77
2022/10/28 01:04:32;;;;;;;7.80;4.80;;;;;;;14.80;100.00;155162.56;4976464;28;20414;-77
2022/10/28 01:07:17;;;;;;;5.63;4.63;;;;;;;14.80;100.00;155161.31;4973528;28;20457;-77
2022/10/28 01:10:02;;;;;;;7.03;4.67;;;;;;;14.76;100.00;155150.88;4964222;28;20439;-77
2022/10/28 01:12:58;;;;;;;9.60;4.70;;;;;;;14.76;100.00;155150.88;4956929;29;20450;-78
2022/10/28 01:15:51;;;;;;;8.30;5.30;;;;;;;14.72;100.00;155140.50;4965262;28;20537;-77
2022/10/28 01:18:57;;;;;;;6.67;5.97;;;;;;;14.69;100.00;155132.72;4922323;29;20926;-77
2022/10/28 01:22:00;;;;;;;6.20;4.80;;;;;;;14.69;100.00;155134.03;4964828;28;20449;-77
2022/10/28 01:24:56;;;;;;;9.10;5.00;;;;;;;14.67;100.00;155128.78;4957523;28;20546;-77
2022/10/28 01:28:03;;;;;;;10.83;5.20;;;;;;;14.68;100.00;155130.09;4953397;28;20450;-78
2022/10/28 01:31:04;;;;;;;13.47;5.80;;;;;;;14.68;100.00;155131.41;4959273;28;20453;-77
2022/10/28 01:33:53;;;;;;;11.17;5.40;;;;;;;14.67;100.00;155127.53;4945344;28;20487;-77
2022/10/28 01:36:41;;;;;;;6.10;4.50;;;;;;;14.67;100.00;155127.53;4971834;28;20798;-77
2022/10/28 01:39:32;;;;;;;8.73;5.53;;;;;;;14.67;100.00;155127.53;4975457;28;20407;-91
2022/10/28 01:42:23;;;;;;;7.53;5.20;;;;;;;14.60;100.00;155111.94;4963908;28;20462;-91
2022/10/28 01:45:13;;;;;;;9.30;5.53;;;;;;;14.54;100.00;155096.31;4958939;28;20529;-91
2022/10/28 01:48:01;;;;;;;6.97;4.73;;;;;;;14.53;100.00;155093.72;4974646;28;20521;-91
2022/10/28 01:50:51;;;;;;;8.23;5.10;;;;;;;14.50;100.00;155085.97;4973451;28;20417;-91
2022/10/28 01:53:40;;;;;;;5.87;4.87;;;;;;;14.49;100.00;155082.03;4959086;28;20455;-92
2022/10/28 01:56:28;;;;;;;7.47;5.43;;;;;;;14.50;100.00;155084.66;4964792;28;20450;-91
2022/10/28 01:59:15;;;;;;;6.73;4.87;;;;;;;14.46;100.00;155074.25;4955900;28;20579;-91
2022/10/28 02:02:00;;;;;;;10.73;5.10;;;;;;;14.43;100.00;155067.75;4948493;28;20627;-91
2022/10/28 02:04:47;;;;;;;11.80;5.13;;;;;;;14.43;100.00;155067.75;4955579;28;20446;-91
2022/10/28 02:07:32;;;;;;;6.50;4.90;;;;;;;14.43;100.00;155067.75;4956267;29;20454;-91
2022/10/28 02:10:23;;;;;;;6.47;5.07;;;;;;;14.41;100.00;155062.56;4955818;28;20458;-77
2022/10/28 02:13:12;;;;;;;6.87;5.30;;;;;;;14.40;100.00;155059.94;4939030;28;20795;-77
2022/10/28 02:16:04;;;;;;;6.53;5.23;;;;;;;14.39;100.00;155056.06;4961519;28;20470;-77
2022/10/28 02:18:59;;;;;;;7.40;4.63;;;;;;;14.40;100.00;155059.94;4963868;28;20538;-78
2022/10/28 02:21:51;;;;;;;13.00;4.73;;;;;;;14.38;100.00;155053.47;4949366;28;20446;-78
2022/10/28 02:24:42;;;;;;;7.27;5.20;;;;;;;14.36;100.00;155049.59;4956852;28;20443;-76
2022/10/28 02:27:32;;;;;;;11.33;5.43;;;;;;;14.38;100.00;155053.47;4946558;28;20506;-75
2022/10/28 02:30:20;;;;;;;10.10;5.13;;;;;;;14.38;100.00;155054.75;4967820;28;20443;-76
2022/10/28 02:33:09;;;;;;;7.73;5.00;;;;;;;14.37;100.00;155050.88;4947905;28;20810;-75
2022/10/28 02:35:57;;;;;;;8.67;5.90;;;;;;;14.35;100.00;155045.72;4963000;28;20457;-75
2022/10/28 02:38:47;;;;;;;8.63;6.20;;;;;;;14.35;100.00;155045.72;4968601;28;20474;-75
2022/10/28 02:41:35;;;;;;;5.30;4.63;;;;;;;14.34;100.00;155043.09;4954849;29;20435;-76
2022/10/28 02:44:23;;;;;;;5.60;4.90;;;;;;;14.31;100.00;155036.59;4954736;29;20427;-76
2022/10/28 02:47:13;;;;;;;7.27;5.10;;;;;;;14.29;100.00;155030.06;4955087;28;20462;-76
2022/10/28 02:50:01;;;;;;;6.80;4.57;;;;;;;14.27;100.00;155026.13;4954533;28;20518;-75
2022/10/28 02:52:49;;;;;;;8.77;5.10;;;;;;;14.30;100.00;155032.63;4947071;28;20450;-76
2022/10/28 02:55:40;;;;;;;6.50;5.17;;;;;;;14.26;100.00;155023.56;4959921;28;20474;-76
2022/10/28 02:58:26;;;;;;;9.03;5.67;;;;;;;14.26;100.00;155022.25;4950690;28;20462;-76
2022/10/28 03:01:11;;;;;;;7.83;5.80;;;;;;;14.25;100.00;155020.94;4969921;28;20868;-76
2022/10/28 03:03:56;;;;;;;6.23;4.63;;;;;;;14.21;100.00;155009.28;4976657;28;20465;-76
2022/10/28 03:06:42;;;;;;;7.13;5.40;;;;;;;14.20;100.00;155006.66;4965757;28;20470;-76
2022/10/28 03:09:27;;;;;;;12.50;5.00;;;;;;;14.20;100.00;155007.97;4957789;28;21010;-76
2022/10/28 03:12:14;;;;;;;10.73;6.17;;;;;;;14.19;100.00;155005.34;4958335;28;20535;-76
2022/10/28 03:15:00;;;;;;;6.83;4.43;;;;;;;14.20;100.00;155007.97;4962561;28;20454;-76
2022/10/28 03:17:45;;;;;;;11.83;5.37;;;;;;;14.23;100.00;155014.47;4958952;29;20470;-76
2022/10/28 03:20:31;;;;;;;6.80;5.73;;;;;;;14.23;100.00;155014.47;4959618;28;20410;-76
2022/10/28 03:23:16;;;;;;;8.90;5.30;;;;;;;14.25;100.00;155020.94;4962661;28;20458;-76
2022/10/28 03:26:01;;;;;;;5.83;4.50;;;;;;;14.26;100.00;155023.56;4957044;28;20527;-76
2022/10/28 03:28:48;;;;;;;6.50;4.70;;;;;;;14.27;100.00;155026.13;4958941;28;20498;-76
2022/10/28 03:31:34;;;;;;;8.13;5.00;;;;;;;14.29;100.00;155030.06;4973828;28;20465;-76
2022/10/28 03:34:19;;;;;;;8.23;4.93;;;;;;;14.29;100.00;155031.38;4959588;28;20562;-76
2022/10/28 03:37:04;;;;;;;10.97;4.53;;;;;;;14.31;100.00;155036.59;4973973;28;20453;-76
2022/10/28 03:39:50;;;;;;;6.77;4.73;;;;;;;14.34;100.00;155043.09;4975558;28;20449;-76
2022/10/28 03:42:35;;;;;;;10.77;4.83;;;;;;;14.37;100.00;155050.88;4960036;28;20462;-76
2022/10/28 03:45:22;;;;;;;5.70;4.40;;;;;;;14.38;100.00;155054.75;4958192;28;20952;-76
2022/10/28 03:48:07;;;;;;;6.63;4.73;;;;;;;14.40;100.00;155058.69;4943261;28;20451;-76
2022/10/28 03:50:53;;;;;;;10.17;5.00;;;;;;;14.42;100.00;155065.19;4962027;28;20587;-76
2022/10/28 03:53:38;;;;;;;6.87;4.40;;;;;;;14.44;100.00;155070.38;4953798;28;20486;-76
2022/10/28 03:56:24;;;;;;;6.30;4.30;;;;;;;14.43;100.00;155067.75;4958237;29;20434;-76
2022/10/28 03:59:11;;;;;;;9.63;5.03;;;;;;;14.43;100.00;155067.75;4964668;28;20526;-76
2022/10/28 04:01:58;;;;;;;7.30;4.60;;;;;;;14.43;100.00;155066.44;4949323;28;20549;-76
2022/10/28 04:04:43;;;;;;;7.33;5.70;;;;;;;14.41;100.00;155061.25;4957773;29;20898;-76
2022/10/28 04:07:29;;;;;;;6.80;3.97;;;;;;;14.40;100.00;155058.69;4956842;28;20550;-76
2022/10/28 04:10:14;;;;;;;7.60;4.53;;;;;;;14.40;100.00;155059.94;4956045;28;20480;-76
2022/10/28 04:13:00;;;;;;;7.37;4.97;;;;;;;14.39;100.00;155057.38;4957421;28;20918;-76
2022/10/28 04:15:45;;;;;;;5.47;4.20;;;;;;;14.41;100.00;155061.25;4960139;28;20835;-76
2022/10/28 04:18:34;;;;;;;8.03;4.43;;;;;;;14.40;100.00;155058.69;4969536;28;20514;-76
2022/10/28 04:21:19;;;;;;;5.43;3.97;;;;;;;14.40;100.00;155059.94;4957798;29;20563;-76
2022/10/28 04:24:05;;;;;;;9.70;4.70;;;;;;;14.42;100.00;155065.19;4942173;29;20439;-76
2022/10/28 04:26:50;;;;;;;8.80;5.00;;;;;;;14.45;100.00;155071.69;4957262;29;20486;-76
2022/10/28 04:29:36;;;;;;;6.30;4.30;;;;;;;14.44;100.00;155069.06;4956224;28;20850;-76
2022/10/28 04:32:21;;;;;;;8.07;4.60;;;;;;;14.44;100.00;155070.38;4956402;28;20494;-76
2022/10/28 04:35:08;;;;;;;6.67;4.67;;;;;;;14.43;100.00;155067.75;4944087;29;20445;-90
2022/10/28 04:37:54;;;;;;;7.87;4.47;;;;;;;14.43;100.00;155067.75;4943184;29;20462;-90
2022/10/28 04:40:39;;;;;;;8.17;5.30;;;;;;;14.42;100.00;155065.19;4938384;29;20787;-90
2022/10/28 04:43:25;;;;;;;9.17;5.33;;;;;;;14.39;100.00;155057.38;4939223;29;20424;-91
2022/10/28 04:46:10;;;;;;;7.40;5.77;;;;;;;14.38;100.00;155054.75;4967345;28;20501;-90
2022/10/28 04:48:55;;;;;;;6.90;5.30;;;;;;;14.42;100.00;155063.88;4964720;28;20949;-90
2022/10/28 04:51:42;;;;;;;6.37;4.73;;;;;;;14.40;100.00;155058.69;4958142;29;20526;-90
2022/10/28 04:54:28;;;;;;;9.57;5.30;;;;;;;14.36;100.00;155049.59;4939289;29;20459;-90
2022/10/28 04:57:13;;;;;;;9.70;5.03;;;;;;;14.38;100.00;155054.75;4957690;28;20459;-91
2022/10/28 04:59:59;;;;;;;8.60;4.73;;;;;;;14.40;100.00;155058.69;4961659;28;20459;-90
2022/10/28 05:02:44;;;;;;;5.87;4.60;;;;;;;14.41;100.00;155062.56;4953111;28;20529;-90
2022/10/28 05:05:30;;;;;;;11.37;5.73;;;;;;;14.40;100.00;155059.94;4984853;28;20441;-90
2022/10/28 05:08:16;;;;;;;8.17;4.67;;;;;;;14.38;100.00;155053.47;4996266;28;20401;-90
2022/10/28 05:11:02;;;;;;;8.10;5.80;;;;;;;14.38;100.00;155054.75;4984306;28;20452;-90
2022/10/28 05:13:47;;;;;;;6.70;5.07;;;;;;;14.32;100.00;155039.16;4957429;29;20395;-90
2022/10/28 05:16:33;;;;;;;7.10;5.30;;;;;;;14.34;100.00;155043.09;4957361;29;20438;-91
2022/10/28 05:19:18;;;;;;;7.73;5.40;;;;;;;14.33;100.00;155040.47;4965097;28;20465;-90
2022/10/28 05:22:04;;;;;;;8.20;5.90;;;;;;;14.35;100.00;155046.97;4975537;28;20481;-90
2022/10/28 05:24:51;;;;;;;6.03;5.17;;;;;;;14.35;100.00;155046.97;4975499;28;20493;-91
2022/10/28 05:27:36;;;;;;;6.33;4.80;;;;;;;14.37;100.00;155052.19;4976962;28;20438;-91
2022/10/28 05:30:21;;;;;;;7.30;4.57;;;;;;;14.41;100.00;155061.25;4970302;28;20425;-91
2022/10/28 05:33:06;;;;;;;6.00;4.43;;;;;;;14.41;100.00;155062.56;4976781;28;20422;-91
2022/10/28 05:35:52;;;;;;;7.43;5.00;;;;;;;14.43;100.00;155067.75;4961481;28;20446;-90
2022/10/28 05:38:38;;;;;;;8.73;4.87;;;;;;;14.44;100.00;155070.38;4975419;28;20472;-91
2022/10/28 05:41:25;;;;;;;8.87;5.40;;;;;;;14.47;100.00;155076.84;4975041;28;20525;-76
2022/10/28 05:44:10;;;;;;;7.80;5.07;;;;;;;14.48;100.00;155079.47;4967656;28;20969;-76
2022/10/28 05:46:56;;;;;;;6.53;4.63;;;;;;;14.45;100.00;155072.97;4965955;28;20464;-76
2022/10/28 05:49:41;;;;;;;7.77;4.60;;;;;;;14.44;100.00;155070.38;4978733;28;20449;-76
2022/10/28 05:52:26;;;;;;;9.53;5.00;;;;;;;14.41;100.00;155061.25;4973180;28;20457;-76
2022/10/28 05:55:12;;;;;;;8.70;4.83;;;;;;;14.38;100.00;155054.75;4973638;28;20461;-76
2022/10/28 05:57:59;;;;;;;6.17;5.07;;;;;;;14.37;100.00;155052.19;4990089;28;20414;-76
2022/10/28 06:00:44;;;;;;;6.17;4.20;;;;;;;14.35;100.00;155045.72;4969971;28;20894;-76
2022/10/28 06:03:29;;;;;;;10.67;5.10;;;;;;;14.35;100.00;155046.97;4972642;28;20469;-76
2022/10/28 06:06:14;;;;;;;6.80;4.43;;;;;;;14.33;100.00;155041.78;4970482;28;20645;-76
2022/10/28 06:09:00;;;;;;;11.73;5.50;;;;;;;14.34;100.00;155044.41;4972623;28;20438;-76
2022/10/28 06:11:45;;;;;;;6.47;4.90;;;;;;;14.34;100.00;155044.41;4975460;28;20520;-90
2022/10/28 06:14:32;;;;;;;5.60;4.47;;;;;;;14.34;100.00;155044.41;4965270;28;20442;-91
2022/10/28 06:17:17;;;;;;;6.50;4.10;;;;;;;14.39;100.00;155057.38;4960025;28;20438;-91
2022/10/28 06:20:03;;;;;;;7.37;4.13;;;;;;;14.37;100.00;155052.19;4970165;28;20470;-90
2022/10/28 06:22:49;;;;;;;5.50;3.83;;;;;;;14.39;100.00;155057.38;4972936;28;21217;-91
2022/10/28 06:25:35;;;;;;;8.23;5.23;;;;;;;14.41;100.00;155061.25;4983269;28;20449;-91
2022/10/28 06:28:20;;;;;;;7.60;3.90;;;;;;;14.43;100.00;155067.75;4974872;28;20465;-91
2022/10/28 06:31:08;;;;;;;4.33;3.90;;;;;;;14.46;100.00;155074.25;4974425;28;20441;-91
2022/10/28 06:33:57;;;;;;;5.23;3.97;;;;;;;14.45;100.00;155072.97;4980009;28;20465;-91
2022/10/28 06:36:42;;;;;;;5.80;3.90;;;;;;;14.46;100.00;155075.53;4974631;28;20810;-91
2022/10/28 06:39:28;;;;;;;5.53;3.40;;;;;;;14.52;99.31;155091.16;4974752;28;20518;-91
2022/10/28 06:42:13;;;;;;;8.87;4.10;;;;;;;14.55;100.00;155098.94;4975004;28;20577;-91
2022/10/28 06:44:59;;;;;;;5.47;3.90;;;;;;;14.57;100.00;155104.13;4976702;28;21038;-89
2022/10/28 06:47:45;;;;;;;7.13;4.00;;;;;;;14.60;99.59;155111.94;4972531;28;20434;-90
2022/10/28 06:50:31;;;;;;;7.53;4.80;;;;;;;14.62;98.84;155117.09;4956554;28;20855;-90
2022/10/28 06:53:16;;;;;;;10.30;4.13;;;;;;;14.65;98.30;155123.59;4989585;28;20456;-90
2022/10/28 06:56:01;;;;;;;10.93;4.27;;;;;;;14.66;100.00;155124.91;4976620;28;20502;-90
2022/10/28 06:58:50;;;;;;;7.83;3.83;;;;;;;14.65;99.51;155123.59;4974351;28;20557;-90
2022/10/28 07:01:35;;;;;;;6.03;4.47;;;;;;;14.68;100.00;155130.09;4966489;28;20530;-90
2022/10/28 07:04:22;;;;;;;11.27;4.80;;;;;;;14.71;98.77;155137.91;4955425;29;20431;-90
2022/10/28 07:07:07;;;;;;;8.03;4.47;;;;;;;14.73;100.00;155143.09;4955820;29;20439;-90
2022/10/28 07:09:52;;;;;;;8.57;4.90;;;;;;;14.79;99.99;155160.00;4966268;28;20445;-89
2022/10/28 07:12:38;;;;;;;6.30;3.73;;;;;;;14.82;98.24;155166.47;4971004;28;20592;-90
2022/10/28 07:15:23;;;;;;;6.50;4.13;;;;;;;14.83;99.52;155170.34;4955541;29;20406;-90
2022/10/28 07:18:08;;;;;;;7.37;4.20;;;;;;;14.87;99.84;155179.47;4967062;28;20422;-91
2022/10/28 07:20:58;;;;;;;6.67;3.80;;;;;;;14.88;99.14;155183.34;4975107;28;20425;-92
2022/10/28 07:23:43;;;;;;;8.00;4.30;;;;;;;14.90;98.40;155187.28;4955991;28;20438;-92
2022/10/28 07:26:28;;;;;;;8.43;4.50;;;;;;;14.93;99.55;155195.06;4955978;29;20439;-92
2022/10/28 07:29:14;;;;;;;4.33;3.90;;;;;;;14.95;100.00;155201.56;4959373;28;20466;-91
2022/10/28 07:31:59;;;;;;;8.30;5.50;;;;;;;14.99;100.00;155210.63;4955755;29;20498;-91
2022/10/28 07:34:44;;;;;;;8.37;5.80;;;;;;;14.99;100.00;155210.63;4954350;29;20523;-92
2022/10/28 07:37:31;;;;;;;7.17;4.90;;;;;;;14.97;100.00;155205.44;4955630;29;20510;-92
2022/10/28 07:40:16;;;;;;;6.87;5.43;;;;;;;14.98;100.00;155208.06;4940796;29;20473;-92
2022/10/28 07:43:02;;;;;;;7.60;5.80;;;;;;;14.95;100.00;155200.25;4967646;28;20418;-92
2022/10/28 07:45:47;;;;;;;6.80;5.10;;;;;;;14.97;100.00;155205.44;4955693;28;20445;-92
2022/10/28 07:48:33;;;;;;;9.37;4.70;;;;;;;15.01;100.00;155215.88;4966756;28;20791;-92
2022/10/28 07:51:18;;;;;;;8.47;4.33;;;;;;;15.06;100.00;155228.84;4958419;28;20450;-92
2022/10/28 07:54:05;;;;;;;7.70;4.50;;;;;;;15.08;100.00;155235.34;4959035;29;20418;-91
2022/10/28 07:56:50;;;;;;;9.97;4.20;;;;;;;15.12;99.38;155244.41;4958820;29;20430;-92
2022/10/28 07:59:35;;;;;;;6.50;4.40;;;;;;;15.16;99.32;155254.81;4958554;28;20615;-92
2022/10/28 08:02:23;;;;;;;5.73;4.50;;;;;;;15.19;98.86;155263.94;4957420;28;20490;-92
2022/10/28 08:05:08;;;;;;;7.80;4.63;;;;;;;15.25;98.69;155278.19;4962860;28;20426;-92
2022/10/28 08:07:53;;;;;;;8.57;4.20;;;;;;;15.31;98.47;155292.50;4966897;28;20564;-92
2022/10/28 08:10:40;;;;;;;7.23;3.80;;;;;;;15.36;97.74;155306.78;4958404;29;20415;-92
2022/10/28 08:13:25;;;;;;;3.80;3.07;;;;;;;15.43;97.06;155325.00;4958240;29;20446;-93
2022/10/28 08:16:11;;;;;;;9.87;4.17;;;;;;;15.50;96.25;155341.94;4957642;29;20492;-91
2022/10/28 08:18:56;;;;;;;6.43;3.87;;;;;;;15.58;94.83;155364.03;4956803;28;21105;-91
2022/10/28 08:21:41;;;;;;;7.63;2.83;;;;;;;15.66;93.51;155384.84;4977288;28;20489;-91
2022/10/28 08:24:27;;;;;;;4.00;3.10;;;;;;;15.72;92.86;155400.47;4957782;29;20434;-91
2022/10/28 08:27:17;;;;;;;4.80;3.10;;;;;;;15.76;91.83;155410.84;4959387;28;20583;-92
2022/10/28 08:30:02;;;;;;;6.27;3.40;;;;;;;15.83;91.09;155429.03;4963071;28;20536;-92
2022/10/28 08:32:47;;;;;;;6.60;3.10;;;;;;;15.87;91.15;155436.81;4965586;28;20502;-91
2022/10/28 08:35:34;;;;;;;7.70;2.63;;;;;;;15.91;90.25;155447.25;4977361;28;20794;-91
2022/10/28 08:38:19;;;;;;;6.37;3.20;;;;;;;15.94;90.16;155455.06;4966974;28;20459;-80
2022/10/28 08:41:39;;;;;;;7.17;3.10;;;;;;;15.98;90.18;155465.44;4950335;28;20458;-76
2022/10/28 08:45:00;;;;;;;6.20;2.90;;;;;;;16.01;89.87;155474.56;4953394;28;20622;-76
2022/10/28 08:47:55;;;;;;;5.97;3.17;;;;;;;16.08;88.56;155491.44;4951702;28;20503;-77
2022/10/28 08:50:46;;;;;;;5.17;3.73;;;;;;;16.12;88.97;155501.88;4950978;28;20532;-77
2022/10/28 08:53:37;;;;;;;5.00;3.20;;;;;;;16.17;88.80;155514.88;4935034;29;20432;-77
2022/10/28 08:56:30;;;;;;;6.00;3.17;;;;;;;16.23;88.33;155530.47;4944149;29;20443;-77
2022/10/28 08:59:19;;;;;;;4.10;3.40;;;;;;;16.30;88.47;155548.66;4952490;28;20474;-77
2022/10/28 09:02:17;;;;;;;6.43;3.80;;;;;;;16.37;87.55;155566.84;4953670;28;20582;-77
2022/10/28 09:05:07;;;;;;;7.50;4.83;;;;;;;16.48;85.70;155595.47;4955895;28;20644;-77
2022/10/28 09:07:53;;;;;;;5.50;4.23;;;;;;;16.54;87.12;155609.84;4953698;28;20907;-76
2022/10/28 09:10:48;;;;;;;7.90;4.20;;;;;;;16.67;85.24;155643.66;4954189;29;20484;-75
2022/10/28 09:13:44;;;;;;;4.90;4.07;;;;;;;16.77;85.76;155670.97;4954426;29;21065;-75
2022/10/28 09:16:39;;;;;;;6.10;3.80;;;;;;;16.82;87.18;155684.00;4956016;29;20411;-76
2022/10/28 09:19:37;;;;;;;7.60;3.70;;;;;;;16.91;85.54;155706.13;4956896;28;20473;-76
2022/10/28 09:22:25;;;;;;;5.47;3.30;;;;;;;16.94;85.67;155715.19;4930485;28;20538;-76
2022/10/28 09:25:18;;;;;;;5.30;3.57;;;;;;;16.97;85.94;155723.00;4936184;29;20408;-76
2022/10/28 09:28:15;;;;;;;6.03;2.90;;;;;;;17.05;85.03;155743.81;4935694;29;20444;-76
2022/10/28 09:31:05;;;;;;;8.00;3.43;;;;;;;17.09;85.28;155751.63;4950548;29;20888;-76
2022/10/28 09:34:01;;;;;;;7.23;3.43;;;;;;;17.14;85.65;155765.97;4953692;28;20558;-76
2022/10/28 09:36:49;;;;;;;5.53;3.30;;;;;;;17.29;84.51;155803.72;4955005;28;20434;-76
2022/10/28 09:39:42;;;;;;;10.17;3.57;;;;;;;17.39;83.37;155829.75;4953108;28;20515;-76
2022/10/28 09:42:29;;;;;;;4.83;2.80;;;;;;;17.76;81.46;155926.13;4940461;29;20490;-76
2022/10/28 09:45:18;;;;;;;3.60;2.57;;;;;;;17.90;83.95;155961.25;4955205;29;20478;-76
2022/10/28 09:48:06;;;;;;;5.20;3.10;;;;;;;17.84;86.48;155946.97;4940502;29;20913;-76
2022/10/28 09:50:54;;;;;;;5.47;2.60;;;;;;;17.76;84.10;155924.81;4936219;29;20780;-76
2022/10/28 09:53:43;;;;;;;6.70;3.30;;;;;;;17.76;84.79;155926.13;4936042;29;20527;-76
2022/10/28 09:56:30;;;;;;;6.27;3.70;;;;;;;17.76;85.77;155924.81;4944916;28;20526;-76
2022/10/28 09:59:15;;;;;;;4.23;3.20;;;;;;;17.84;86.90;155946.97;4954682;29;20450;-76
2022/10/28 10:02:02;;;;;;;5.90;3.20;;;;;;;17.89;84.67;155958.66;4940450;29;20835;-77
2022/10/28 10:04:47;;;;;;;11.87;4.70;;;;;;;17.97;84.52;155980.81;4951659;28;21028;-77
2022/10/28 10:07:35;;;;;;;8.80;3.30;;;;;;;18.09;83.19;156012.03;4954746;28;20422;-77
2022/10/28 10:10:27;;;;;;;8.83;4.57;;;;;;;18.24;82.63;156051.09;4955625;28;20407;-76
2022/10/28 10:13:13;;;;;;;6.50;4.10;;;;;;;18.31;82.64;156066.75;4953815;28;20466;-77
2022/10/28 10:16:01;;;;;;;8.13;4.03;;;;;;;18.32;83.16;156070.63;4954318;29;20543;-76
2022/10/28 10:18:50;;;;;;;6.77;4.20;;;;;;;18.43;82.75;156097.97;4954506;29;20936;-76
2022/10/28 10:21:44;;;;;;;8.10;4.13;;;;;;;18.54;83.66;156126.69;4944500;29;20419;-76
2022/10/28 10:24:31;;;;;;;8.20;3.70;;;;;;;18.56;83.72;156131.94;4952950;29;20451;-76
2022/10/28 10:27:19;;;;;;;6.13;3.40;;;;;;;18.63;83.74;156151.47;4954446;29;20868;-76
2022/10/28 10:30:14;;;;;;;6.30;4.23;;;;;;;18.64;84.46;156152.75;4953901;28;20453;-77
2022/10/28 10:32:59;;;;;;;5.83;3.70;;;;;;;18.68;84.38;156164.50;4954460;29;20434;-77
2022/10/28 10:35:53;;;;;;;6.70;4.10;;;;;;;18.93;85.77;156228.31;4954573;29;20439;-77
2022/10/28 10:38:46;;;;;;;10.33;3.90;;;;;;;19.29;85.65;156322.16;4952875;29;20954;-77
2022/10/28 10:41:36;;;;;;;9.93;3.80;;;;;;;19.20;82.94;156297.38;4954081;28;20463;-77
2022/10/28 10:44:32;;;;;;;6.57;4.40;;;;;;;18.95;86.35;156233.56;4955055;29;20522;-77
2022/10/28 10:47:21;;;;;;;8.93;3.60;;;;;;;18.89;86.34;156217.91;4944521;28;20456;-77
2022/10/28 10:50:25;;;;;;;8.57;3.80;;;;;;;18.99;84.93;156243.97;4927721;29;20424;-77
2022/10/28 10:53:20;;;;;;;6.87;3.63;;;;;;;19.09;83.18;156270.00;4934138;29;20446;-77
2022/10/28 10:56:08;;;;;;;6.93;3.33;;;;;;;19.28;80.96;156319.53;4947717;28;20451;-77
2022/10/28 10:58:55;;;;;;;4.73;3.30;;;;;;;19.23;82.63;156306.53;4948633;28;20465;-77
2022/10/28 11:01:41;;;;;;;7.60;4.10;;;;;;;19.23;80.49;156305.19;4953427;28;20578;-77
2022/10/28 11:04:29;;;;;;;9.50;4.87;;;;;;;19.36;79.42;156340.41;4954308;29;20450;-76
2022/10/28 11:07:15;;;;;;;3.90;3.07;;;;;;;19.39;79.50;156348.28;4951992;29;20582;-77
2022/10/28 11:10:02;;;;;;;6.00;4.53;;;;;;;19.33;80.31;156332.56;4940496;29;20453;-78
2022/10/28 11:12:52;;;;;;;8.80;4.83;;;;;;;19.30;80.84;156324.75;4948665;28;20503;-78
2022/10/28 11:15:38;;;;;;;6.60;4.10;;;;;;;19.32;81.22;156330.00;4934992;29;20491;-78
2022/10/28 11:18:24;;;;;;;5.30;3.70;;;;;;;19.26;81.87;156314.34;4952762;28;20790;-76
2022/10/28 11:21:48;;;;;;;8.20;4.17;;;;;;;19.30;81.94;156324.75;4954882;28;20797;-76
2022/10/28 11:24:56;;;;;;;7.17;4.10;;;;;;;19.34;82.05;156335.19;4914861;29;20516;-76
2022/10/28 11:27:50;;;;;;;6.70;4.17;;;;;;;19.39;81.25;156346.97;4957765;29;20498;-76
2022/10/28 11:30:45;;;;;;;10.13;4.00;;;;;;;19.43;81.83;156357.41;4954911;29;20414;-75
2022/10/28 11:33:36;;;;;;;8.13;4.20;;;;;;;19.40;83.31;156349.59;4956875;29;20442;-78
2022/10/28 11:36:25;;;;;;;9.33;4.80;;;;;;;19.44;83.77;156361.31;4958083;29;20412;-78
2022/10/28 11:39:19;;;;;;;9.53;4.47;;;;;;;19.51;83.78;156376.97;4957360;29;20450;-78
2022/10/28 11:42:16;;;;;;;5.60;4.00;;;;;;;19.51;84.37;156376.97;4958085;29;20879;-78
2022/10/28 11:45:06;;;;;;;8.57;4.90;;;;;;;19.60;87.44;156400.41;4957616;29;20946;-76
2022/10/28 11:48:01;;;;;;;12.30;4.23;;;;;;;19.64;88.41;156410.84;4950407;29;20447;-76
2022/10/28 11:50:57;;;;;;;4.80;4.00;;;;;;;19.88;88.09;156473.44;4957280;28;20439;-78
2022/10/28 11:53:56;;;;;;;5.77;3.60;;;;;;;19.87;84.86;156472.13;4954180;28;20810;-76
2022/10/28 11:56:44;;;;;;;7.37;3.70;;;;;;;20.08;84.01;156524.25;4956957;28;20431;-77
2022/10/28 11:59:41;;;;;;;5.03;3.87;;;;;;;20.27;82.50;156575.19;4944450;29;20521;-76
2022/10/28 12:02:38;;;;;;;8.47;2.90;;;;;;;20.37;78.56;156601.28;4960248;28;20537;-76
2022/10/28 12:05:27;;;;;;;6.87;3.00;;;;;;;20.38;77.18;156603.91;4957946;28;20435;-77
2022/10/28 12:08:26;;;;;;;11.70;3.43;;;;;;;20.27;78.69;156573.88;4972901;28;20481;-90
2022/10/28 12:11:19;;;;;;;5.30;2.90;;;;;;;20.21;79.44;156558.19;4967787;28;20956;-90
2022/10/28 12:14:12;;;;;;;6.83;3.10;;;;;;;20.37;82.27;156599.97;4968357;28;20516;-90
2022/10/28 12:17:03;;;;;;;10.20;3.60;;;;;;;20.22;83.46;156562.13;4977053;28;20450;-90
2022/10/28 12:19:53;;;;;;;8.47;3.93;;;;;;;20.18;83.99;156550.34;4972118;28;20610;-90
2022/10/28 12:22:45;;;;;;;10.03;6.33;;;;;;;20.13;85.37;156537.31;4973458;28;20454;-90
2022/10/28 12:25:34;;;;;;;8.80;5.70;;;;;;;20.03;85.85;156512.53;4974027;28;20458;-90
2022/10/28 12:28:22;;;;;;;7.33;5.00;;;;;;;20.02;87.24;156511.22;4960755;28;20446;-89
2022/10/28 12:31:18;;;;;;;6.37;4.37;;;;;;;20.05;86.78;156519.06;4971453;28;20988;-77
2022/10/28 12:34:06;;;;;;;6.73;3.57;;;;;;;20.06;87.09;156520.38;4966744;28;20453;-78
2022/10/28 12:36:54;;;;;;;6.30;3.70;;;;;;;20.05;87.94;156517.75;4970462;28;20909;-78
2022/10/28 12:39:42;;;;;;;6.87;4.50;;;;;;;20.06;88.56;156520.38;4972550;28;20521;-78
2022/10/28 12:42:31;;;;;;;5.63;3.83;;;;;;;20.26;87.78;156571.25;4975913;28;20445;-80
2022/10/28 12:45:18;;;;;;;5.73;3.87;;;;;;;20.59;87.37;156658.69;4981240;28;20454;-78
2022/10/28 12:48:07;;;;;;;7.20;4.00;;;;;;;20.78;84.89;156705.66;4974778;28;20545;-78
2022/10/28 12:50:53;;;;;;;7.90;4.33;;;;;;;20.89;86.28;156734.38;4979539;28;20438;-78
2022/10/28 12:53:43;;;;;;;7.33;3.63;;;;;;;21.00;84.67;156763.03;4965991;28;20909;-76
2022/10/28 12:56:33;;;;;;;12.70;4.60;;;;;;;20.99;83.82;156761.75;4973210;28;20457;-78